sensor_id;sensor_type;location;lat;lon;timestamp;P1;durP1;ratioP1;P2;durP2;ratioP2
14528;SDS011;7351;51.194;4.098;2023-04-24T00:01:34;5.63;;;5.20;;
14528;SDS011;7351;51.194;4.098;2023-04-24T00:04:01;5.10;;;4.70;;
14528;SDS011;7351;51.194;4.098;2023-04-24T00:06:28;5.23;;;4.83;;
14528;SDS011;7351;51.194;4.098;2023-04-24T00:08:58;5.00;;;4.60;;
14528;SDS011;7351;51.194;4.098;2023-04-24T00:11:26;6.80;;;6.20;;
14528;SDS011;7351;51.194;4.098;2023-04-24T00:13:53;5.30;;;5.00;;
14528;SDS011;7351;51.194;4.098;2023-04-24T00:16:20;6.90;;;6.30;;
14528;SDS011;7351;51.194;4.098;2023-04-24T00:18:48;7.33;;;6.80;;
14528;SDS011;7351;51.194;4.098;2023-04-24T00:21:17;7.17;;;6.57;;
14528;SDS011;7351;51.194;4.098;2023-04-24T00:23:45;6.37;;;5.87;;
14528;SDS011;7351;51.194;4.098;2023-04-24T00:26:13;6.80;;;6.40;;
14528;SDS011;7351;51.194;4.098;2023-04-24T00:28:40;7.53;;;6.80;;
14528;SDS011;7351;51.194;4.098;2023-04-24T00:31:07;6.17;;;5.57;;
14528;SDS011;7351;51.194;4.098;2023-04-24T00:33:34;7.33;;;6.73;;
14528;SDS011;7351;51.194;4.098;2023-04-24T00:36:02;6.40;;;5.87;;
14528;SDS011;7351;51.194;4.098;2023-04-24T00:38:29;6.70;;;6.20;;
14528;SDS011;7351;51.194;4.098;2023-04-24T00:40:56;6.77;;;6.27;;
14528;SDS011;7351;51.194;4.098;2023-04-24T00:43:23;7.63;;;6.57;;
14528;SDS011;7351;51.194;4.098;2023-04-24T00:45:50;8.53;;;7.17;;
14528;SDS011;7351;51.194;4.098;2023-04-24T00:48:17;6.10;;;5.60;;
14528;SDS011;7351;51.194;4.098;2023-04-24T00:50:45;6.50;;;6.00;;
14528;SDS011;7351;51.194;4.098;2023-04-24T00:53:13;6.47;;;5.83;;
14528;SDS011;7351;51.194;4.098;2023-04-24T00:55:40;7.40;;;6.63;;
14528;SDS011;7351;51.194;4.098;2023-04-24T00:58:07;7.27;;;6.60;;
14528;SDS011;7351;51.194;4.098;2023-04-24T01:00:34;6.77;;;6.27;;
14528;SDS011;7351;51.194;4.098;2023-04-24T01:03:01;6.67;;;6.27;;
14528;SDS011;7351;51.194;4.098;2023-04-24T01:05:32;5.90;;;5.53;;
14528;SDS011;7351;51.194;4.098;2023-04-24T01:07:59;8.30;;;6.63;;
14528;SDS011;7351;51.194;4.098;2023-04-24T01:10:29;7.20;;;6.57;;
14528;SDS011;7351;51.194;4.098;2023-04-24T01:12:57;7.23;;;6.63;;
14528;SDS011;7351;51.194;4.098;2023-04-24T01:15:24;7.37;;;6.77;;
14528;SDS011;7351;51.194;4.098;2023-04-24T01:17:51;7.27;;;6.43;;
14528;SDS011;7351;51.194;4.098;2023-04-24T01:20:18;7.27;;;6.50;;
14528;SDS011;7351;51.194;4.098;2023-04-24T01:22:48;8.60;;;7.83;;
14528;SDS011;7351;51.194;4.098;2023-04-24T01:25:15;7.57;;;6.77;;
14528;SDS011;7351;51.194;4.098;2023-04-24T01:27:42;7.10;;;6.57;;
14528;SDS011;7351;51.194;4.098;2023-04-24T01:30:09;8.10;;;7.13;;
14528;SDS011;7351;51.194;4.098;2023-04-24T01:32:38;6.33;;;5.93;;
14528;SDS011;7351;51.194;4.098;2023-04-24T01:35:07;7.93;;;7.13;;
14528;SDS011;7351;51.194;4.098;2023-04-24T01:37:34;7.03;;;6.53;;
14528;SDS011;7351;51.194;4.098;2023-04-24T01:40:04;6.20;;;5.80;;
14528;SDS011;7351;51.194;4.098;2023-04-24T01:42:32;6.83;;;6.33;;
14528;SDS011;7351;51.194;4.098;2023-04-24T01:44:59;8.13;;;7.53;;
14528;SDS011;7351;51.194;4.098;2023-04-24T01:47:28;8.23;;;7.60;;
14528;SDS011;7351;51.194;4.098;2023-04-24T01:49:56;7.17;;;6.37;;
14528;SDS011;7351;51.194;4.098;2023-04-24T01:52:24;7.27;;;6.70;;
14528;SDS011;7351;51.194;4.098;2023-04-24T01:54:52;6.47;;;5.97;;
14528;SDS011;7351;51.194;4.098;2023-04-24T01:57:22;6.83;;;6.20;;
14528;SDS011;7351;51.194;4.098;2023-04-24T01:59:49;6.63;;;6.03;;
14528;SDS011;7351;51.194;4.098;2023-04-24T02:02:16;7.03;;;6.53;;
14528;SDS011;7351;51.194;4.098;2023-04-24T02:04:46;6.93;;;6.33;;
14528;SDS011;7351;51.194;4.098;2023-04-24T02:07:13;5.97;;;5.63;;
14528;SDS011;7351;51.194;4.098;2023-04-24T02:09:40;7.20;;;6.70;;
14528;SDS011;7351;51.194;4.098;2023-04-24T02:12:07;6.50;;;5.90;;
14528;SDS011;7351;51.194;4.098;2023-04-24T02:14:35;6.93;;;6.40;;
14528;SDS011;7351;51.194;4.098;2023-04-24T02:17:02;6.70;;;6.10;;
14528;SDS011;7351;51.194;4.098;2023-04-24T02:19:29;6.27;;;5.83;;
14528;SDS011;7351;51.194;4.098;2023-04-24T02:21:56;6.43;;;5.93;;
14528;SDS011;7351;51.194;4.098;2023-04-24T02:24:23;5.70;;;5.30;;
14528;SDS011;7351;51.194;4.098;2023-04-24T02:26:50;6.23;;;5.73;;
14528;SDS011;7351;51.194;4.098;2023-04-24T02:29:17;7.03;;;6.33;;
14528;SDS011;7351;51.194;4.098;2023-04-24T02:31:46;6.37;;;5.87;;
14528;SDS011;7351;51.194;4.098;2023-04-24T02:34:13;6.70;;;6.20;;
14528;SDS011;7351;51.194;4.098;2023-04-24T02:36:40;6.70;;;6.20;;
14528;SDS011;7351;51.194;4.098;2023-04-24T02:39:07;5.40;;;5.10;;
14528;SDS011;7351;51.194;4.098;2023-04-24T02:41:34;6.00;;;5.60;;
14528;SDS011;7351;51.194;4.098;2023-04-24T02:44:01;6.53;;;6.03;;
14528;SDS011;7351;51.194;4.098;2023-04-24T02:46:28;6.40;;;6.00;;
14528;SDS011;7351;51.194;4.098;2023-04-24T02:48:56;7.10;;;6.60;;
14528;SDS011;7351;51.194;4.098;2023-04-24T02:51:23;6.90;;;6.40;;
14528;SDS011;7351;51.194;4.098;2023-04-24T02:53:50;5.93;;;5.63;;
14528;SDS011;7351;51.194;4.098;2023-04-24T02:56:17;6.20;;;5.83;;
14528;SDS011;7351;51.194;4.098;2023-04-24T02:58:44;6.33;;;5.93;;
14528;SDS011;7351;51.194;4.098;2023-04-24T03:01:11;6.10;;;5.70;;
14528;SDS011;7351;51.194;4.098;2023-04-24T03:03:38;5.53;;;5.17;;
14528;SDS011;7351;51.194;4.098;2023-04-24T03:06:07;5.97;;;5.57;;
14528;SDS011;7351;51.194;4.098;2023-04-24T03:08:34;6.10;;;5.77;;
14528;SDS011;7351;51.194;4.098;2023-04-24T03:11:01;5.67;;;5.37;;
14528;SDS011;7351;51.194;4.098;2023-04-24T03:13:28;5.47;;;5.17;;
14528;SDS011;7351;51.194;4.098;2023-04-24T03:15:55;5.33;;;4.93;;
14528;SDS011;7351;51.194;4.098;2023-04-24T03:18:22;5.90;;;5.50;;
14528;SDS011;7351;51.194;4.098;2023-04-24T03:20:50;5.43;;;5.13;;
14528;SDS011;7351;51.194;4.098;2023-04-24T03:23:18;5.87;;;5.50;;
14528;SDS011;7351;51.194;4.098;2023-04-24T03:25:45;5.60;;;5.30;;
14528;SDS011;7351;51.194;4.098;2023-04-24T03:28:13;5.67;;;5.27;;
14528;SDS011;7351;51.194;4.098;2023-04-24T03:30:40;5.27;;;4.97;;
14528;SDS011;7351;51.194;4.098;2023-04-24T03:33:07;4.87;;;4.60;;
14528;SDS011;7351;51.194;4.098;2023-04-24T03:35:34;5.47;;;5.17;;
14528;SDS011;7351;51.194;4.098;2023-04-24T03:38:02;5.50;;;5.17;;
14528;SDS011;7351;51.194;4.098;2023-04-24T03:40:31;4.83;;;4.53;;
14528;SDS011;7351;51.194;4.098;2023-04-24T03:42:58;5.10;;;4.70;;
14528;SDS011;7351;51.194;4.098;2023-04-24T03:45:25;5.17;;;4.77;;
14528;SDS011;7351;51.194;4.098;2023-04-24T03:47:52;4.80;;;4.50;;
14528;SDS011;7351;51.194;4.098;2023-04-24T03:50:19;5.67;;;5.27;;
14528;SDS011;7351;51.194;4.098;2023-04-24T03:52:46;5.27;;;4.77;;
14528;SDS011;7351;51.194;4.098;2023-04-24T03:55:13;4.53;;;4.23;;
14528;SDS011;7351;51.194;4.098;2023-04-24T03:57:41;4.93;;;4.53;;
14528;SDS011;7351;51.194;4.098;2023-04-24T04:00:09;4.07;;;3.87;;
14528;SDS011;7351;51.194;4.098;2023-04-24T04:02:37;4.63;;;4.23;;
14528;SDS011;7351;51.194;4.098;2023-04-24T04:05:04;4.53;;;4.23;;
14528;SDS011;7351;51.194;4.098;2023-04-24T04:07:31;3.97;;;3.77;;
14528;SDS011;7351;51.194;4.098;2023-04-24T04:09:58;3.60;;;3.40;;
14528;SDS011;7351;51.194;4.098;2023-04-24T04:12:25;5.10;;;3.50;;
14528;SDS011;7351;51.194;4.098;2023-04-24T04:14:53;4.17;;;3.87;;
14528;SDS011;7351;51.194;4.098;2023-04-24T04:17:20;5.00;;;3.30;;
14528;SDS011;7351;51.194;4.098;2023-04-24T04:19:47;4.43;;;3.77;;
14528;SDS011;7351;51.194;4.098;2023-04-24T04:22:14;6.53;;;3.60;;
14528;SDS011;7351;51.194;4.098;2023-04-24T04:24:41;4.83;;;4.43;;
14528;SDS011;7351;51.194;4.098;2023-04-24T04:27:08;3.83;;;3.53;;
14528;SDS011;7351;51.194;4.098;2023-04-24T04:29:36;5.17;;;4.67;;
14528;SDS011;7351;51.194;4.098;2023-04-24T04:32:05;6.07;;;4.47;;
14528;SDS011;7351;51.194;4.098;2023-04-24T04:34:32;5.03;;;4.20;;
14528;SDS011;7351;51.194;4.098;2023-04-24T04:36:59;4.93;;;4.43;;
14528;SDS011;7351;51.194;4.098;2023-04-24T04:39:26;4.13;;;3.83;;
14528;SDS011;7351;51.194;4.098;2023-04-24T04:41:54;5.33;;;4.10;;
14528;SDS011;7351;51.194;4.098;2023-04-24T04:44:22;4.57;;;4.13;;
14528;SDS011;7351;51.194;4.098;2023-04-24T04:46:49;5.47;;;3.33;;
14528;SDS011;7351;51.194;4.098;2023-04-24T04:49:19;3.83;;;3.43;;
14528;SDS011;7351;51.194;4.098;2023-04-24T04:51:46;5.57;;;3.30;;
14528;SDS011;7351;51.194;4.098;2023-04-24T04:54:13;4.70;;;3.63;;
14528;SDS011;7351;51.194;4.098;2023-04-24T04:56:40;3.00;;;2.77;;
14528;SDS011;7351;51.194;4.098;2023-04-24T04:59:07;6.97;;;3.53;;
14528;SDS011;7351;51.194;4.098;2023-04-24T05:01:34;3.13;;;2.93;;
14528;SDS011;7351;51.194;4.098;2023-04-24T05:04:01;4.40;;;3.13;;
14528;SDS011;7351;51.194;4.098;2023-04-24T05:06:30;3.03;;;2.73;;
14528;SDS011;7351;51.194;4.098;2023-04-24T05:08:57;3.50;;;3.20;;
14528;SDS011;7351;51.194;4.098;2023-04-24T05:11:24;2.87;;;2.67;;
14528;SDS011;7351;51.194;4.098;2023-04-24T05:13:50;4.70;;;3.67;;
14528;SDS011;7351;51.194;4.098;2023-04-24T05:16:18;4.23;;;2.90;;
14528;SDS011;7351;51.194;4.098;2023-04-24T05:18:45;3.73;;;2.33;;
14528;SDS011;7351;51.194;4.098;2023-04-24T05:21:12;4.10;;;2.90;;
14528;SDS011;7351;51.194;4.098;2023-04-24T05:23:40;3.20;;;2.87;;
14528;SDS011;7351;51.194;4.098;2023-04-24T05:26:07;6.63;;;3.00;;
14528;SDS011;7351;51.194;4.098;2023-04-24T05:28:34;2.90;;;2.70;;
14528;SDS011;7351;51.194;4.098;2023-04-24T05:31:01;3.10;;;2.80;;
14528;SDS011;7351;51.194;4.098;2023-04-24T05:33:29;2.90;;;2.60;;
14528;SDS011;7351;51.194;4.098;2023-04-24T05:35:56;2.97;;;2.73;;
14528;SDS011;7351;51.194;4.098;2023-04-24T05:38:23;8.03;;;3.13;;
14528;SDS011;7351;51.194;4.098;2023-04-24T05:40:51;3.97;;;2.93;;
14528;SDS011;7351;51.194;4.098;2023-04-24T05:43:18;3.37;;;3.17;;
14528;SDS011;7351;51.194;4.098;2023-04-24T05:45:45;3.60;;;3.30;;
14528;SDS011;7351;51.194;4.098;2023-04-24T05:48:12;4.30;;;3.60;;
14528;SDS011;7351;51.194;4.098;2023-04-24T05:50:39;3.73;;;3.43;;
14528;SDS011;7351;51.194;4.098;2023-04-24T05:53:06;3.50;;;3.20;;
14528;SDS011;7351;51.194;4.098;2023-04-24T05:55:34;3.47;;;3.17;;
14528;SDS011;7351;51.194;4.098;2023-04-24T05:58:02;4.13;;;3.77;;
14528;SDS011;7351;51.194;4.098;2023-04-24T06:00:30;3.67;;;3.37;;
14528;SDS011;7351;51.194;4.098;2023-04-24T06:02:57;4.87;;;3.90;;
14528;SDS011;7351;51.194;4.098;2023-04-24T06:05:24;5.00;;;4.50;;
14528;SDS011;7351;51.194;4.098;2023-04-24T06:07:51;5.60;;;3.57;;
14528;SDS011;7351;51.194;4.098;2023-04-24T06:10:18;5.13;;;4.60;;
14528;SDS011;7351;51.194;4.098;2023-04-24T06:12:45;8.40;;;3.77;;
14528;SDS011;7351;51.194;4.098;2023-04-24T06:15:13;3.53;;;3.33;;
14528;SDS011;7351;51.194;4.098;2023-04-24T06:17:40;3.67;;;3.37;;
14528;SDS011;7351;51.194;4.098;2023-04-24T06:20:07;3.80;;;3.40;;
14528;SDS011;7351;51.194;4.098;2023-04-24T06:22:36;8.20;;;4.00;;
14528;SDS011;7351;51.194;4.098;2023-04-24T06:25:05;3.80;;;3.50;;
14528;SDS011;7351;51.194;4.098;2023-04-24T06:27:32;6.33;;;4.23;;
14528;SDS011;7351;51.194;4.098;2023-04-24T06:30:00;4.57;;;4.13;;
14528;SDS011;7351;51.194;4.098;2023-04-24T06:32:28;4.30;;;4.00;;
14528;SDS011;7351;51.194;4.098;2023-04-24T06:34:55;7.07;;;4.07;;
14528;SDS011;7351;51.194;4.098;2023-04-24T06:37:22;4.13;;;3.83;;
14528;SDS011;7351;51.194;4.098;2023-04-24T06:39:53;8.80;;;4.73;;
14528;SDS011;7351;51.194;4.098;2023-04-24T06:42:19;6.13;;;5.03;;
14528;SDS011;7351;51.194;4.098;2023-04-24T06:44:47;6.07;;;4.27;;
14528;SDS011;7351;51.194;4.098;2023-04-24T06:47:14;5.77;;;4.30;;
14528;SDS011;7351;51.194;4.098;2023-04-24T06:49:42;9.27;;;4.87;;
14528;SDS011;7351;51.194;4.098;2023-04-24T06:52:09;8.03;;;4.63;;
14528;SDS011;7351;51.194;4.098;2023-04-24T06:54:36;11.63;;;4.90;;
14528;SDS011;7351;51.194;4.098;2023-04-24T06:57:03;6.83;;;4.77;;
14528;SDS011;7351;51.194;4.098;2023-04-24T06:59:30;6.57;;;4.80;;
14528;SDS011;7351;51.194;4.098;2023-04-24T07:01:58;9.90;;;4.83;;
14528;SDS011;7351;51.194;4.098;2023-04-24T07:04:25;6.67;;;4.70;;
14528;SDS011;7351;51.194;4.098;2023-04-24T07:06:54;5.80;;;4.20;;
14528;SDS011;7351;51.194;4.098;2023-04-24T07:09:22;8.20;;;4.80;;
14528;SDS011;7351;51.194;4.098;2023-04-24T07:11:50;7.03;;;4.67;;
14528;SDS011;7351;51.194;4.098;2023-04-24T07:14:18;10.77;;;4.90;;
14528;SDS011;7351;51.194;4.098;2023-04-24T07:16:45;9.73;;;3.73;;
14528;SDS011;7351;51.194;4.098;2023-04-24T07:19:12;6.00;;;4.97;;
14528;SDS011;7351;51.194;4.098;2023-04-24T07:21:40;4.80;;;4.30;;
14528;SDS011;7351;51.194;4.098;2023-04-24T07:24:08;8.10;;;4.37;;
14528;SDS011;7351;51.194;4.098;2023-04-24T07:26:36;7.07;;;4.87;;
14528;SDS011;7351;51.194;4.098;2023-04-24T07:29:04;6.17;;;3.73;;
14528;SDS011;7351;51.194;4.098;2023-04-24T07:31:31;6.17;;;4.27;;
14528;SDS011;7351;51.194;4.098;2023-04-24T07:33:59;10.97;;;5.10;;
14528;SDS011;7351;51.194;4.098;2023-04-24T07:36:26;12.10;;;4.50;;
14528;SDS011;7351;51.194;4.098;2023-04-24T07:38:53;4.70;;;4.27;;
14528;SDS011;7351;51.194;4.098;2023-04-24T07:41:22;9.93;;;4.57;;
14528;SDS011;7351;51.194;4.098;2023-04-24T07:43:49;9.77;;;5.30;;
14528;SDS011;7351;51.194;4.098;2023-04-24T07:46:17;9.40;;;4.57;;
14528;SDS011;7351;51.194;4.098;2023-04-24T07:48:44;9.13;;;4.97;;
14528;SDS011;7351;51.194;4.098;2023-04-24T07:51:13;8.27;;;5.03;;
14528;SDS011;7351;51.194;4.098;2023-04-24T07:53:40;8.90;;;5.27;;
14528;SDS011;7351;51.194;4.098;2023-04-24T07:56:07;8.63;;;5.67;;
14528;SDS011;7351;51.194;4.098;2023-04-24T07:58:35;12.37;;;5.17;;
14528;SDS011;7351;51.194;4.098;2023-04-24T08:01:02;11.03;;;5.90;;
14528;SDS011;7351;51.194;4.098;2023-04-24T08:03:30;7.20;;;5.40;;
14528;SDS011;7351;51.194;4.098;2023-04-24T08:05:56;9.20;;;5.83;;
14528;SDS011;7351;51.194;4.098;2023-04-24T08:08:24;8.47;;;5.67;;
14528;SDS011;7351;51.194;4.098;2023-04-24T08:10:51;11.63;;;5.90;;
14528;SDS011;7351;51.194;4.098;2023-04-24T08:13:18;11.33;;;6.07;;
14528;SDS011;7351;51.194;4.098;2023-04-24T08:15:46;12.47;;;6.73;;
14528;SDS011;7351;51.194;4.098;2023-04-24T08:18:13;11.80;;;5.63;;
14528;SDS011;7351;51.194;4.098;2023-04-24T08:20:40;10.87;;;5.73;;
14528;SDS011;7351;51.194;4.098;2023-04-24T08:23:07;11.87;;;6.20;;
14528;SDS011;7351;51.194;4.098;2023-04-24T08:25:34;13.47;;;6.77;;
14528;SDS011;7351;51.194;4.098;2023-04-24T08:28:02;11.33;;;6.40;;
14528;SDS011;7351;51.194;4.098;2023-04-24T08:30:29;11.53;;;6.27;;
14528;SDS011;7351;51.194;4.098;2023-04-24T08:32:58;8.43;;;5.33;;
14528;SDS011;7351;51.194;4.098;2023-04-24T08:35:25;12.87;;;6.53;;
14528;SDS011;7351;51.194;4.098;2023-04-24T08:37:52;9.63;;;5.80;;
14528;SDS011;7351;51.194;4.098;2023-04-24T08:40:20;12.17;;;6.50;;
14528;SDS011;7351;51.194;4.098;2023-04-24T08:42:52;11.93;;;5.90;;
14528;SDS011;7351;51.194;4.098;2023-04-24T08:45:21;11.63;;;6.23;;
14528;SDS011;7351;51.194;4.098;2023-04-24T08:47:48;7.43;;;5.47;;
14528;SDS011;7351;51.194;4.098;2023-04-24T08:50:17;10.20;;;5.23;;
14528;SDS011;7351;51.194;4.098;2023-04-24T08:52:44;10.43;;;6.00;;
14528;SDS011;7351;51.194;4.098;2023-04-24T08:55:11;7.50;;;5.03;;
14528;SDS011;7351;51.194;4.098;2023-04-24T08:57:39;14.37;;;6.10;;
14528;SDS011;7351;51.194;4.098;2023-04-24T09:00:09;11.27;;;5.17;;
14528;SDS011;7351;51.194;4.098;2023-04-24T09:02:38;8.47;;;4.47;;
14528;SDS011;7351;51.194;4.098;2023-04-24T09:05:08;7.80;;;5.33;;
14528;SDS011;7351;51.194;4.098;2023-04-24T09:07:37;8.27;;;4.50;;
14528;SDS011;7351;51.194;4.098;2023-04-24T09:10:08;8.57;;;4.90;;
14528;SDS011;7351;51.194;4.098;2023-04-24T09:12:35;9.90;;;4.37;;
14528;SDS011;7351;51.194;4.098;2023-04-24T09:15:02;8.03;;;4.70;;
14528;SDS011;7351;51.194;4.098;2023-04-24T09:17:30;11.90;;;5.03;;
14528;SDS011;7351;51.194;4.098;2023-04-24T09:19:57;7.30;;;4.97;;
14528;SDS011;7351;51.194;4.098;2023-04-24T09:22:24;7.20;;;4.73;;
14528;SDS011;7351;51.194;4.098;2023-04-24T09:25:00;5.60;;;4.13;;
14528;SDS011;7351;51.194;4.098;2023-04-24T09:27:30;8.53;;;5.13;;
14528;SDS011;7351;51.194;4.098;2023-04-24T09:29:58;6.07;;;4.03;;
14528;SDS011;7351;51.194;4.098;2023-04-24T09:32:25;10.20;;;4.67;;
14528;SDS011;7351;51.194;4.098;2023-04-24T09:35:04;5.57;;;4.97;;
14528;SDS011;7351;51.194;4.098;2023-04-24T09:37:36;8.23;;;4.60;;
14528;SDS011;7351;51.194;4.098;2023-04-24T09:40:09;6.97;;;4.97;;
14528;SDS011;7351;51.194;4.098;2023-04-24T09:42:43;10.33;;;5.30;;
14528;SDS011;7351;51.194;4.098;2023-04-24T09:45:11;10.30;;;5.03;;
14528;SDS011;7351;51.194;4.098;2023-04-24T09:47:38;7.87;;;4.50;;
14528;SDS011;7351;51.194;4.098;2023-04-24T09:50:09;8.83;;;4.17;;
14528;SDS011;7351;51.194;4.098;2023-04-24T09:52:41;11.30;;;4.83;;
14528;SDS011;7351;51.194;4.098;2023-04-24T09:55:15;7.73;;;4.83;;
14528;SDS011;7351;51.194;4.098;2023-04-24T09:57:50;9.23;;;4.90;;
14528;SDS011;7351;51.194;4.098;2023-04-24T10:00:22;6.03;;;3.83;;
14528;SDS011;7351;51.194;4.098;2023-04-24T10:02:54;7.13;;;4.73;;
14528;SDS011;7351;51.194;4.098;2023-04-24T10:05:25;6.27;;;4.57;;
14528;SDS011;7351;51.194;4.098;2023-04-24T10:07:59;9.43;;;4.50;;
14528;SDS011;7351;51.194;4.098;2023-04-24T10:10:29;16.40;;;4.97;;
14528;SDS011;7351;51.194;4.098;2023-04-24T10:12:57;8.33;;;3.50;;
14528;SDS011;7351;51.194;4.098;2023-04-24T10:15:25;7.80;;;4.33;;
14528;SDS011;7351;51.194;4.098;2023-04-24T10:17:53;11.00;;;3.83;;
14528;SDS011;7351;51.194;4.098;2023-04-24T10:20:20;9.83;;;4.50;;
14528;SDS011;7351;51.194;4.098;2023-04-24T10:22:50;9.57;;;5.23;;
14528;SDS011;7351;51.194;4.098;2023-04-24T10:25:19;10.47;;;4.03;;
14528;SDS011;7351;51.194;4.098;2023-04-24T10:27:52;6.03;;;3.57;;
14528;SDS011;7351;51.194;4.098;2023-04-24T10:30:22;9.77;;;4.53;;
14528;SDS011;7351;51.194;4.098;2023-04-24T10:32:49;7.10;;;4.47;;
14528;SDS011;7351;51.194;4.098;2023-04-24T10:35:16;12.90;;;4.20;;
14528;SDS011;7351;51.194;4.098;2023-04-24T10:37:48;8.53;;;4.40;;
14528;SDS011;7351;51.194;4.098;2023-04-24T10:40:17;10.07;;;4.33;;
14528;SDS011;7351;51.194;4.098;2023-04-24T10:42:47;10.60;;;5.67;;
14528;SDS011;7351;51.194;4.098;2023-04-24T10:45:19;8.60;;;3.33;;
14528;SDS011;7351;51.194;4.098;2023-04-24T10:47:54;7.87;;;4.13;;
14528;SDS011;7351;51.194;4.098;2023-04-24T10:50:26;11.03;;;3.87;;
14528;SDS011;7351;51.194;4.098;2023-04-24T10:53:05;6.83;;;4.00;;
14528;SDS011;7351;51.194;4.098;2023-04-24T10:55:39;8.53;;;3.83;;
14528;SDS011;7351;51.194;4.098;2023-04-24T10:58:08;12.00;;;4.77;;
14528;SDS011;7351;51.194;4.098;2023-04-24T11:00:37;6.53;;;4.13;;
14528;SDS011;7351;51.194;4.098;2023-04-24T11:03:05;11.50;;;4.27;;
14528;SDS011;7351;51.194;4.098;2023-04-24T11:05:51;9.00;;;3.57;;
14528;SDS011;7351;51.194;4.098;2023-04-24T11:08:22;7.53;;;3.47;;
14528;SDS011;7351;51.194;4.098;2023-04-24T11:11:01;14.63;;;4.33;;
14528;SDS011;7351;51.194;4.098;2023-04-24T11:16:31;7.13;;;6.43;;
14528;SDS011;7351;51.194;4.098;2023-04-24T11:19:03;17.63;;;14.63;;
14528;SDS011;7351;51.194;4.098;2023-04-24T11:21:32;23.07;;;20.73;;
14528;SDS011;7351;51.194;4.098;2023-04-24T11:24:24;26.87;;;23.13;;
14528;SDS011;7351;51.194;4.098;2023-04-24T11:26:53;25.10;;;20.33;;
14528;SDS011;7351;51.194;4.098;2023-04-24T11:29:21;20.27;;;17.50;;
14528;SDS011;7351;51.194;4.098;2023-04-24T11:31:50;23.77;;;18.87;;
14528;SDS011;7351;51.194;4.098;2023-04-24T11:34:17;18.27;;;16.27;;
14528;SDS011;7351;51.194;4.098;2023-04-24T11:36:45;21.20;;;14.03;;
14528;SDS011;7351;51.194;4.098;2023-04-24T11:39:12;18.57;;;14.93;;
14528;SDS011;7351;51.194;4.098;2023-04-24T11:41:39;18.60;;;15.53;;
14528;SDS011;7351;51.194;4.098;2023-04-24T11:44:08;14.73;;;13.23;;
14528;SDS011;7351;51.194;4.098;2023-04-24T11:46:36;16.97;;;13.47;;
14528;SDS011;7351;51.194;4.098;2023-04-24T11:49:06;15.33;;;12.67;;
14528;SDS011;7351;51.194;4.098;2023-04-24T11:51:33;16.23;;;12.53;;
14528;SDS011;7351;51.194;4.098;2023-04-24T11:54:01;13.13;;;10.97;;
14528;SDS011;7351;51.194;4.098;2023-04-24T11:56:28;14.60;;;12.07;;
14528;SDS011;7351;51.194;4.098;2023-04-24T11:58:55;10.27;;;9.13;;
14528;SDS011;7351;51.194;4.098;2023-04-24T12:01:22;16.37;;;11.47;;
14528;SDS011;7351;51.194;4.098;2023-04-24T12:03:49;15.37;;;9.27;;
14528;SDS011;7351;51.194;4.098;2023-04-24T12:06:18;11.10;;;7.70;;
14528;SDS011;7351;51.194;4.098;2023-04-24T12:08:45;11.27;;;8.87;;
14528;SDS011;7351;51.194;4.098;2023-04-24T12:11:14;9.03;;;7.80;;
14528;SDS011;7351;51.194;4.098;2023-04-24T12:13:43;8.57;;;7.77;;
14528;SDS011;7351;51.194;4.098;2023-04-24T12:16:11;12.93;;;7.33;;
14528;SDS011;7351;51.194;4.098;2023-04-24T12:18:42;11.50;;;7.20;;
14528;SDS011;7351;51.194;4.098;2023-04-24T12:21:21;10.30;;;7.67;;
14528;SDS011;7351;51.194;4.098;2023-04-24T12:23:53;12.57;;;6.77;;
14528;SDS011;7351;51.194;4.098;2023-04-24T12:26:21;11.63;;;6.53;;
14528;SDS011;7351;51.194;4.098;2023-04-24T12:28:48;12.17;;;7.23;;
14528;SDS011;7351;51.194;4.098;2023-04-24T12:31:16;11.10;;;7.00;;
14528;SDS011;7351;51.194;4.098;2023-04-24T12:33:43;8.87;;;6.20;;
14528;SDS011;7351;51.194;4.098;2023-04-24T12:36:10;8.70;;;5.73;;
14528;SDS011;7351;51.194;4.098;2023-04-24T12:38:43;10.00;;;5.07;;
14528;SDS011;7351;51.194;4.098;2023-04-24T12:41:12;8.70;;;5.17;;
14528;SDS011;7351;51.194;4.098;2023-04-24T12:43:50;6.90;;;5.87;;
14528;SDS011;7351;51.194;4.098;2023-04-24T12:46:17;6.20;;;5.53;;
14528;SDS011;7351;51.194;4.098;2023-04-24T12:48:45;13.27;;;6.30;;
14528;SDS011;7351;51.194;4.098;2023-04-24T12:51:12;5.23;;;4.70;;
14528;SDS011;7351;51.194;4.098;2023-04-24T12:53:39;10.73;;;5.00;;
14528;SDS011;7351;51.194;4.098;2023-04-24T12:56:07;9.57;;;4.87;;
14528;SDS011;7351;51.194;4.098;2023-04-24T12:58:34;5.73;;;4.90;;
14528;SDS011;7351;51.194;4.098;2023-04-24T13:01:01;8.13;;;5.83;;
14528;SDS011;7351;51.194;4.098;2023-04-24T13:03:28;6.63;;;4.83;;
14528;SDS011;7351;51.194;4.098;2023-04-24T13:05:55;5.27;;;4.77;;
14528;SDS011;7351;51.194;4.098;2023-04-24T13:08:22;5.40;;;4.10;;
14528;SDS011;7351;51.194;4.098;2023-04-24T13:10:49;8.50;;;4.60;;
14528;SDS011;7351;51.194;4.098;2023-04-24T13:13:18;5.93;;;3.87;;
14528;SDS011;7351;51.194;4.098;2023-04-24T13:15:45;6.70;;;4.23;;
14528;SDS011;7351;51.194;4.098;2023-04-24T13:18:12;7.17;;;4.00;;
14528;SDS011;7351;51.194;4.098;2023-04-24T13:20:39;6.10;;;3.30;;
14528;SDS011;7351;51.194;4.098;2023-04-24T13:23:06;6.67;;;3.83;;
14528;SDS011;7351;51.194;4.098;2023-04-24T13:25:34;6.53;;;3.87;;
14528;SDS011;7351;51.194;4.098;2023-04-24T13:28:04;5.67;;;3.23;;
14528;SDS011;7351;51.194;4.098;2023-04-24T13:30:34;6.70;;;3.70;;
14528;SDS011;7351;51.194;4.098;2023-04-24T13:33:01;7.03;;;3.63;;
14528;SDS011;7351;51.194;4.098;2023-04-24T13:35:29;7.13;;;3.63;;
14528;SDS011;7351;51.194;4.098;2023-04-24T13:37:56;3.47;;;3.17;;
14528;SDS011;7351;51.194;4.098;2023-04-24T13:40:23;3.80;;;3.43;;
14528;SDS011;7351;51.194;4.098;2023-04-24T13:42:50;3.60;;;3.20;;
14528;SDS011;7351;51.194;4.098;2023-04-24T13:45:17;4.47;;;3.03;;
14528;SDS011;7351;51.194;4.098;2023-04-24T13:47:45;3.70;;;3.40;;
14528;SDS011;7351;51.194;4.098;2023-04-24T13:50:12;3.13;;;2.83;;
14528;SDS011;7351;51.194;4.098;2023-04-24T13:52:40;5.13;;;3.00;;
14528;SDS011;7351;51.194;4.098;2023-04-24T13:55:07;3.63;;;3.33;;
14528;SDS011;7351;51.194;4.098;2023-04-24T13:57:34;7.57;;;3.57;;
14528;SDS011;7351;51.194;4.098;2023-04-24T14:00:02;4.53;;;2.73;;
14528;SDS011;7351;51.194;4.098;2023-04-24T14:02:29;7.37;;;3.53;;
14528;SDS011;7351;51.194;4.098;2023-04-24T14:04:57;5.00;;;3.13;;
14528;SDS011;7351;51.194;4.098;2023-04-24T14:07:24;6.50;;;3.53;;
14528;SDS011;7351;51.194;4.098;2023-04-24T14:09:51;7.03;;;2.73;;
14528;SDS011;7351;51.194;4.098;2023-04-24T14:12:18;4.60;;;3.87;;
14528;SDS011;7351;51.194;4.098;2023-04-24T14:14:46;4.97;;;2.93;;
14528;SDS011;7351;51.194;4.098;2023-04-24T14:17:13;3.27;;;2.97;;
14528;SDS011;7351;51.194;4.098;2023-04-24T14:19:40;5.27;;;2.90;;
14528;SDS011;7351;51.194;4.098;2023-04-24T14:22:09;4.03;;;2.37;;
14528;SDS011;7351;51.194;4.098;2023-04-24T14:24:36;5.00;;;2.60;;
14528;SDS011;7351;51.194;4.098;2023-04-24T14:27:03;5.13;;;2.97;;
14528;SDS011;7351;51.194;4.098;2023-04-24T14:29:30;8.77;;;2.87;;
14528;SDS011;7351;51.194;4.098;2023-04-24T14:31:57;2.13;;;2.00;;
14528;SDS011;7351;51.194;4.098;2023-04-24T14:34:24;5.90;;;2.43;;
14528;SDS011;7351;51.194;4.098;2023-04-24T14:36:52;4.67;;;2.60;;
14528;SDS011;7351;51.194;4.098;2023-04-24T14:39:20;5.43;;;2.50;;
14528;SDS011;7351;51.194;4.098;2023-04-24T14:41:47;3.30;;;1.73;;
14528;SDS011;7351;51.194;4.098;2023-04-24T14:44:14;3.57;;;2.37;;
14528;SDS011;7351;51.194;4.098;2023-04-24T14:46:41;3.97;;;3.13;;
14528;SDS011;7351;51.194;4.098;2023-04-24T14:49:08;3.10;;;2.63;;
14528;SDS011;7351;51.194;4.098;2023-04-24T14:51:37;3.57;;;2.33;;
14528;SDS011;7351;51.194;4.098;2023-04-24T14:54:04;5.07;;;2.43;;
14528;SDS011;7351;51.194;4.098;2023-04-24T14:56:32;7.07;;;2.73;;
14528;SDS011;7351;51.194;4.098;2023-04-24T14:59:00;1.93;;;1.77;;
14528;SDS011;7351;51.194;4.098;2023-04-24T15:01:27;2.67;;;2.07;;
14528;SDS011;7351;51.194;4.098;2023-04-24T15:03:54;4.37;;;2.20;;
14528;SDS011;7351;51.194;4.098;2023-04-24T15:06:21;6.00;;;2.20;;